Robert Gray Army Air Field Airport Fort Hood,Killeen US
ICAO: KGRK
IATA: GRK
Category: Medium
Scheduled Services: Yes

Elevation: 1015 ft
TransAlt. 18000 ft.

Airport Communications:
GRAY APP/DEP:120.075
ATIS:111.8
CLNC DEL:121.8
GRAY GND:126.2
RANGE CTL:30.45
FT HOOD FLT FLW:38.75
PMSV GRAY METRO:41.2
PTD:38.7
TWR:120.75

KGRK Zoom In..

If you have problems with the map follow the link
https://www.worldairports.se/pages/airport.php?
ICAO=KGRK

Runways:

(A) RW 15 length 10000 ft width 200 ft
ILS 111.10 / hdg 150

(B) RW 33 length 10000 ft width 200 ft
ILS 109.35 / hdg 330

Location; KGRK
Day. 28 / Time. 13.58 Zulu
* Altimeter: 29.87
* Temperature: 12° c. 53.6°f.
* Wind from: 140° Speed 10 kn.
Dewpoint: 12° c.
Visibility: 8 Statute Miles.
Clouds: Overcast 400 ft.

KGRK 281358Z AUTO 14010KT 8SM OVC004 12/12 A2987 RMK AO2 SLP114 T01210115


Wind From 140°
Speed 10 kn.

 
 
jpsmedia worldairports.se 2020   terms of use